Time;durP1;ratioP1;P1;durP2;ratioP2;P2;SDS_P1;SDS_P2;PMS_P1;PMS_P2;Temp;Humidity;BMP_temperature;BMP_pressure;BME280_temperature;BME280_humidity;BME280_pressure;Samples;Min_cycle;Max_cycle;Signal;HPM_P1;HPM_P2
2022/10/13 00:01:09;;;;;;;27.40;11.23;;;9.60;99.90;;;;;;4945420;29;20483;-67
2022/10/13 00:03:36;;;;;;;20.15;11.25;;;9.70;99.90;;;;;;4946228;29;20103;-68
2022/10/13 00:06:08;;;;;;;22.75;11.95;;;9.60;99.90;;;;;;4945168;29;20131;-67
2022/10/13 00:08:34;;;;;;;23.88;11.90;;;9.60;99.90;;;;;;4945445;29;20379;-67
2022/10/13 00:11:00;;;;;;;22.10;12.60;;;9.50;99.90;;;;;;4945160;29;20059;-67
2022/10/13 00:13:26;;;;;;;20.40;11.70;;;9.60;99.90;;;;;;4945997;29;20613;-67
2022/10/13 00:15:52;;;;;;;21.55;11.57;;;9.60;99.90;;;;;;4945817;29;20098;-68
2022/10/13 00:18:17;;;;;;;19.73;11.35;;;9.50;99.90;;;;;;4945064;29;20047;-67
2022/10/13 00:20:46;;;;;;;18.92;12.18;;;9.60;99.90;;;;;;4928820;29;20118;-66
2022/10/13 00:23:13;;;;;;;21.52;12.40;;;9.50;99.90;;;;;;4945286;29;20137;-67
2022/10/13 00:25:44;;;;;;;20.17;11.95;;;9.50;99.90;;;;;;4944115;29;20087;-66
2022/10/13 00:28:11;;;;;;;19.50;12.25;;;9.60;99.90;;;;;;4945215;29;20055;-67
2022/10/13 00:30:38;;;;;;;21.58;11.70;;;9.50;99.90;;;;;;4945519;28;20051;-67
2022/10/13 00:33:04;;;;;;;21.20;12.43;;;9.50;99.90;;;;;;4945274;28;20098;-68
2022/10/13 00:35:29;;;;;;;19.90;12.02;;;9.40;99.90;;;;;;4945666;28;20043;-66
2022/10/13 00:37:55;;;;;;;18.45;11.93;;;9.60;99.90;;;;;;4943874;29;20041;-67
2022/10/13 00:40:21;;;;;;;20.38;12.45;;;9.50;99.90;;;;;;4944679;28;20375;-67
2022/10/13 00:42:46;;;;;;;20.90;13.85;;;9.50;99.90;;;;;;4943213;29;20178;-67
2022/10/13 00:45:26;;;;;;;20.15;12.65;;;9.60;99.90;;;;;;4945593;28;20092;-67
2022/10/13 00:47:59;;;;;;;20.98;12.95;;;9.50;99.90;;;;;;4945345;28;20159;-67
2022/10/13 00:50:30;;;;;;;22.33;12.23;;;9.60;99.90;;;;;;4945309;28;20062;-67
2022/10/13 00:52:58;;;;;;;21.13;13.10;;;9.60;99.90;;;;;;4945808;28;20073;-67
2022/10/13 00:55:29;;;;;;;20.02;12.60;;;9.50;99.90;;;;;;4944104;28;20122;-67
2022/10/13 00:57:57;;;;;;;22.25;13.43;;;9.60;99.90;;;;;;4945229;28;20402;-67
2022/10/13 01:00:24;;;;;;;20.92;13.55;;;9.60;99.90;;;;;;4945031;28;20474;-67
2022/10/13 01:02:50;;;;;;;22.88;13.10;;;9.50;99.90;;;;;;4943956;29;20044;-67
2022/10/13 01:05:18;;;;;;;22.10;13.50;;;9.50;99.90;;;;;;4943784;28;20039;-67
2022/10/13 01:07:47;;;;;;;22.75;13.15;;;9.40;99.90;;;;;;4945237;29;20042;-67
2022/10/13 01:10:23;;;;;;;22.58;13.50;;;9.50;99.90;;;;;;4943741;29;20055;-67
2022/10/13 01:13:10;;;;;;;22.75;13.98;;;9.40;99.90;;;;;;4944974;29;20558;-67
2022/10/13 01:15:44;;;;;;;22.48;13.70;;;9.60;99.90;;;;;;4927576;29;20053;-67
2022/10/13 01:18:15;;;;;;;21.52;12.93;;;9.50;99.90;;;;;;4944616;29;20087;-67
2022/10/13 01:21:19;;;;;;;24.25;13.50;;;9.50;99.90;;;;;;4945296;29;20094;-68
2022/10/13 01:23:50;;;;;;;23.60;13.73;;;9.40;99.90;;;;;;4944740;29;20043;-68
2022/10/13 01:26:43;;;;;;;21.52;13.55;;;9.50;99.90;;;;;;4926043;29;20090;-67
2022/10/13 01:29:28;;;;;;;22.73;12.80;;;9.50;99.90;;;;;;4943870;29;20178;-68
2022/10/13 01:32:04;;;;;;;23.73;14.40;;;9.50;99.90;;;;;;4944118;29;20056;-67
2022/10/13 01:34:39;;;;;;;23.60;13.65;;;9.50;99.90;;;;;;4927419;29;20089;-67
2022/10/13 01:37:40;;;;;;;20.95;13.20;;;9.40;99.90;;;;;;4944096;29;20071;-67
2022/10/13 01:40:15;;;;;;;24.27;13.68;;;9.40;99.90;;;;;;4902605;29;20056;-68
2022/10/13 01:43:02;;;;;;;27.38;14.18;;;9.40;99.90;;;;;;4938297;29;20127;-68
2022/10/13 01:45:34;;;;;;;20.98;13.90;;;9.40;99.90;;;;;;4944608;29;20043;-67
2022/10/13 01:48:02;;;;;;;23.33;14.35;;;9.50;99.90;;;;;;4944437;29;20043;-67
2022/10/13 01:50:29;;;;;;;25.38;14.60;;;9.50;99.90;;;;;;4927414;29;20079;-68
2022/10/13 01:52:58;;;;;;;26.20;13.90;;;9.50;99.90;;;;;;4944500;29;20053;-67
2022/10/13 01:55:24;;;;;;;25.00;14.38;;;9.50;99.90;;;;;;4943037;29;20039;-66
2022/10/13 01:57:50;;;;;;;21.35;14.55;;;9.50;99.90;;;;;;4944383;29;20048;-67
2022/10/13 02:00:19;;;;;;;19.85;14.35;;;9.40;99.90;;;;;;4944225;29;20059;-68
2022/10/13 02:03:14;;;;;;;20.30;13.45;;;9.50;99.90;;;;;;4943670;29;20043;-67
2022/10/13 02:06:07;;;;;;;23.83;14.80;;;9.50;99.90;;;;;;4926976;29;20055;-67
2022/10/13 02:09:15;;;;;;;24.15;14.50;;;9.40;99.90;;;;;;4927339;29;20626;-68
2022/10/13 02:11:48;;;;;;;22.58;14.02;;;9.40;99.90;;;;;;4915640;29;20055;-67
2022/10/13 02:14:27;;;;;;;24.15;14.02;;;9.40;99.90;;;;;;4946271;29;20415;-67
2022/10/13 02:16:54;;;;;;;23.88;14.10;;;9.40;99.90;;;;;;4948092;29;20046;-67
2022/10/13 02:19:21;;;;;;;22.65;14.48;;;9.30;99.90;;;;;;4947444;29;20432;-68
2022/10/13 02:21:47;;;;;;;24.63;15.30;;;9.40;99.90;;;;;;4948117;29;20044;-67
2022/10/13 02:24:14;;;;;;;21.83;14.73;;;9.30;99.90;;;;;;4945820;29;20854;-67
2022/10/13 02:26:41;;;;;;;24.35;14.68;;;9.30;99.90;;;;;;4948009;29;20122;-67
2022/10/13 02:29:13;;;;;;;23.25;15.32;;;9.30;99.90;;;;;;4947070;29;20051;-66
2022/10/13 02:31:39;;;;;;;22.27;14.07;;;9.20;99.90;;;;;;4947198;29;20086;-67
2022/10/13 02:34:05;;;;;;;23.27;13.98;;;9.20;99.90;;;;;;4947809;29;20043;-67
2022/10/13 02:36:31;;;;;;;21.27;14.32;;;9.10;99.90;;;;;;4930570;29;20051;-67
2022/10/13 02:38:57;;;;;;;22.00;14.43;;;9.20;99.90;;;;;;4929060;29;20082;-66
2022/10/13 02:41:22;;;;;;;22.73;13.85;;;9.20;99.90;;;;;;4947385;29;21051;-67
2022/10/13 02:43:48;;;;;;;21.60;13.45;;;9.40;99.90;;;;;;4947625;29;20078;-67
2022/10/13 02:46:14;;;;;;;29.23;14.68;;;9.30;99.90;;;;;;4947271;29;20043;-67
2022/10/13 02:48:39;;;;;;;23.30;14.70;;;9.20;99.90;;;;;;4947242;29;20534;-67
2022/10/13 02:51:05;;;;;;;24.23;14.35;;;9.30;99.90;;;;;;4947340;29;20071;-67
2022/10/13 02:53:31;;;;;;;23.02;15.10;;;9.20;99.90;;;;;;4947310;29;20058;-67
2022/10/13 02:55:56;;;;;;;25.52;15.75;;;9.20;99.90;;;;;;4929727;29;20122;-67
2022/10/13 02:58:22;;;;;;;24.50;14.95;;;9.30;99.90;;;;;;4946383;29;20142;-68
2022/10/13 03:00:48;;;;;;;21.40;14.85;;;9.20;99.90;;;;;;4930245;29;20045;-67
2022/10/13 03:03:13;;;;;;;25.27;16.23;;;9.20;99.90;;;;;;4929814;29;20047;-67
2022/10/13 03:05:39;;;;;;;24.20;14.65;;;9.10;99.90;;;;;;4945867;29;20062;-67
2022/10/13 03:08:05;;;;;;;26.08;16.15;;;9.20;99.90;;;;;;4947050;29;20039;-68
2022/10/13 03:10:31;;;;;;;26.75;15.73;;;9.10;99.90;;;;;;4946169;29;20056;-66
2022/10/13 03:12:57;;;;;;;26.45;15.95;;;9.20;99.90;;;;;;4947309;29;20526;-67
2022/10/13 03:15:23;;;;;;;23.92;14.68;;;9.20;99.90;;;;;;4946427;29;20126;-67
2022/10/13 03:17:49;;;;;;;23.05;15.57;;;9.20;99.90;;;;;;4929763;29;20498;-67
2022/10/13 03:20:15;;;;;;;23.08;14.48;;;9.30;99.90;;;;;;4946744;29;20043;-67
2022/10/13 03:22:41;;;;;;;25.75;15.82;;;9.30;99.90;;;;;;4945763;29;20387;-67
2022/10/13 03:25:07;;;;;;;22.65;15.30;;;9.20;99.90;;;;;;4944784;28;20100;-67
2022/10/13 03:27:33;;;;;;;29.35;15.73;;;9.20;99.90;;;;;;4929171;29;20089;-67
2022/10/13 03:29:58;;;;;;;24.77;15.38;;;9.30;99.90;;;;;;4946784;29;20219;-67
2022/10/13 03:32:24;;;;;;;24.95;15.88;;;9.50;99.90;;;;;;4928521;29;20050;-67
2022/10/13 03:34:51;;;;;;;21.98;15.23;;;9.30;99.90;;;;;;4929141;29;20605;-66
2022/10/13 03:37:16;;;;;;;21.70;15.18;;;9.40;99.90;;;;;;4946142;29;20065;-67
2022/10/13 03:39:42;;;;;;;27.88;15.40;;;9.30;99.90;;;;;;4945973;29;20051;-67
2022/10/13 03:42:09;;;;;;;23.65;15.55;;;9.40;99.90;;;;;;4945592;29;20600;-67
2022/10/13 03:44:34;;;;;;;25.75;15.82;;;9.40;99.90;;;;;;4946538;29;20395;-67
2022/10/13 03:47:00;;;;;;;24.83;15.52;;;9.40;99.90;;;;;;4946906;29;20165;-67
2022/10/13 03:49:26;;;;;;;22.60;15.77;;;9.40;99.90;;;;;;4945760;29;20576;-67
2022/10/13 03:51:51;;;;;;;25.60;16.52;;;9.30;99.90;;;;;;4946376;29;20467;-67
2022/10/13 03:54:17;;;;;;;24.50;15.82;;;9.40;99.90;;;;;;4945135;29;20051;-67
2022/10/13 03:56:43;;;;;;;28.60;17.35;;;9.40;99.90;;;;;;4946313;29;20051;-67
2022/10/13 03:59:12;;;;;;;26.27;16.35;;;9.30;99.90;;;;;;4927804;29;20097;-67
2022/10/13 04:01:38;;;;;;;27.13;16.98;;;9.40;99.90;;;;;;4946078;29;20047;-66
2022/10/13 04:04:04;;;;;;;22.90;15.90;;;9.30;99.90;;;;;;4945671;29;20074;-66
2022/10/13 04:06:30;;;;;;;26.25;16.50;;;9.30;99.90;;;;;;4945040;29;20055;-67
2022/10/13 04:08:56;;;;;;;25.92;16.15;;;9.50;99.90;;;;;;4927521;29;20047;-66
2022/10/13 04:11:22;;;;;;;23.42;15.52;;;9.40;99.90;;;;;;4945125;29;20167;-67
2022/10/13 04:13:48;;;;;;;24.33;16.00;;;9.40;99.90;;;;;;4945703;29;20086;-67
2022/10/13 04:16:18;;;;;;;25.10;15.70;;;9.30;99.90;;;;;;4944620;29;20434;-67
2022/10/13 04:18:44;;;;;;;24.67;15.85;;;9.40;99.90;;;;;;4945573;29;20434;-67
2022/10/13 04:21:12;;;;;;;27.70;16.90;;;9.40;99.90;;;;;;4944961;29;20043;-67
2022/10/13 04:23:38;;;;;;;25.63;17.00;;;9.30;99.90;;;;;;4944366;29;20050;-66
2022/10/13 04:26:05;;;;;;;28.33;17.00;;;9.40;99.90;;;;;;4945463;29;20036;-67
2022/10/13 04:28:34;;;;;;;25.00;16.95;;;9.30;99.90;;;;;;4945968;29;20336;-68
2022/10/13 04:31:02;;;;;;;27.63;16.92;;;9.30;99.90;;;;;;4945028;29;20126;-67
2022/10/13 04:33:28;;;;;;;27.77;17.67;;;9.40;99.90;;;;;;4945947;29;20049;-66
2022/10/13 04:35:54;;;;;;;25.42;16.42;;;9.40;99.90;;;;;;4943839;28;20147;-67
2022/10/13 04:38:19;;;;;;;27.85;17.85;;;9.30;99.90;;;;;;4928412;29;20601;-67
2022/10/13 04:40:45;;;;;;;29.50;17.65;;;9.30;99.90;;;;;;4944857;29;20057;-66
2022/10/13 04:43:11;;;;;;;28.98;18.50;;;9.30;99.90;;;;;;4927764;29;20039;-67
2022/10/13 04:45:36;;;;;;;27.60;17.90;;;9.30;99.90;;;;;;4945166;29;20418;-66
2022/10/13 04:48:02;;;;;;;32.58;18.73;;;9.30;99.90;;;;;;4943457;29;20524;-67
2022/10/13 04:50:28;;;;;;;29.45;19.17;;;9.40;99.90;;;;;;4944650;29;20510;-67
2022/10/13 04:52:53;;;;;;;28.63;18.95;;;9.40;99.90;;;;;;4944587;29;20114;-67
2022/10/13 04:55:19;;;;;;;28.73;18.88;;;9.30;99.90;;;;;;4943390;29;20875;-66
2022/10/13 04:57:44;;;;;;;28.15;18.23;;;9.40;99.90;;;;;;4944174;29;20039;-66
2022/10/13 05:00:11;;;;;;;25.60;19.55;;;9.30;99.90;;;;;;4944031;29;20133;-66
2022/10/13 05:02:37;;;;;;;29.25;18.52;;;9.40;99.90;;;;;;4927852;29;20477;-66
2022/10/13 05:05:03;;;;;;;26.83;19.45;;;9.40;99.90;;;;;;4944418;29;20079;-66
2022/10/13 05:07:30;;;;;;;28.92;19.05;;;9.30;99.90;;;;;;4944449;29;20654;-66
2022/10/13 05:09:56;;;;;;;26.50;19.10;;;9.30;99.90;;;;;;4943686;29;20122;-65
2022/10/13 05:12:22;;;;;;;27.83;19.50;;;9.40;99.90;;;;;;4944164;29;20209;-65
2022/10/13 05:14:47;;;;;;;28.38;19.33;;;9.20;99.90;;;;;;4944777;29;20043;-65
2022/10/13 05:17:13;;;;;;;30.67;19.05;;;9.30;99.90;;;;;;4944319;29;20043;-65
2022/10/13 05:19:39;;;;;;;29.52;19.98;;;9.30;99.90;;;;;;4944536;29;20406;-65
2022/10/13 05:22:04;;;;;;;32.67;20.42;;;9.20;99.90;;;;;;4944829;29;20178;-65
2022/10/13 05:24:35;;;;;;;29.25;20.60;;;9.10;99.90;;;;;;4943658;29;20039;-65
2022/10/13 05:27:08;;;;;;;34.58;21.35;;;9.10;99.90;;;;;;4945155;29;20054;-65
2022/10/13 05:29:33;;;;;;;33.40;22.02;;;9.20;99.90;;;;;;4944629;29;20050;-65
2022/10/13 05:31:59;;;;;;;29.38;20.33;;;9.30;99.90;;;;;;4945113;29;20043;-65
2022/10/13 05:34:25;;;;;;;29.33;21.27;;;9.10;99.90;;;;;;4927151;29;20430;-65
2022/10/13 05:36:50;;;;;;;32.78;21.00;;;9.10;99.90;;;;;;4944472;29;20502;-64
2022/10/13 05:39:16;;;;;;;33.80;21.25;;;9.20;99.90;;;;;;4942801;29;20394;-65
2022/10/13 05:41:42;;;;;;;31.58;21.33;;;9.30;99.90;;;;;;4944608;29;20047;-65
2022/10/13 05:44:08;;;;;;;30.42;22.55;;;9.30;99.90;;;;;;4944728;29;20130;-65
2022/10/13 05:46:35;;;;;;;30.95;21.85;;;9.30;99.90;;;;;;4911856;28;20159;-65
2022/10/13 05:49:00;;;;;;;31.42;21.38;;;9.20;99.90;;;;;;4930967;29;20051;-65
2022/10/13 05:51:31;;;;;;;34.28;22.42;;;9.30;99.90;;;;;;4948289;29;20426;-65
2022/10/13 05:54:08;;;;;;;32.33;21.77;;;9.30;99.90;;;;;;4947804;29;20055;-65
2022/10/13 05:56:45;;;;;;;31.77;22.58;;;9.10;99.90;;;;;;4948062;29;20358;-64
2022/10/13 05:59:14;;;;;;;31.73;22.00;;;9.30;99.90;;;;;;4930763;29;20179;-65
2022/10/13 06:01:41;;;;;;;32.53;23.88;;;9.30;99.90;;;;;;4947586;29;20089;-64
2022/10/13 06:04:16;;;;;;;44.90;25.48;;;9.30;99.90;;;;;;4914671;29;20398;-65
2022/10/13 06:06:42;;;;;;;35.13;24.15;;;9.30;99.90;;;;;;4947267;29;20098;-65
2022/10/13 06:09:07;;;;;;;38.42;25.05;;;9.30;99.90;;;;;;4946774;29;20054;-65
2022/10/13 06:11:33;;;;;;;35.22;24.48;;;9.20;99.90;;;;;;4947998;29;20059;-60
2022/10/13 06:13:59;;;;;;;32.58;23.63;;;9.40;99.90;;;;;;4948453;29;20074;-65
2022/10/13 06:16:24;;;;;;;36.00;24.67;;;9.30;99.90;;;;;;4959718;28;20050;-65
2022/10/13 06:18:50;;;;;;;36.25;25.52;;;9.40;99.90;;;;;;4965977;28;20083;-65
2022/10/13 06:21:16;;;;;;;39.90;25.67;;;9.30;99.90;;;;;;4966840;28;20038;-65
2022/10/13 06:23:41;;;;;;;38.22;25.40;;;9.40;99.90;;;;;;4966219;28;20043;-65
2022/10/13 06:26:08;;;;;;;35.92;25.17;;;9.30;99.90;;;;;;4967014;28;20038;-65
2022/10/13 06:28:33;;;;;;;39.28;27.00;;;9.40;99.90;;;;;;4966969;28;20109;-64
2022/10/13 06:30:59;;;;;;;40.55;26.80;;;9.40;99.90;;;;;;4967037;28;20034;-65
2022/10/13 06:33:25;;;;;;;40.60;26.15;;;9.40;99.90;;;;;;4966578;28;20062;-65
2022/10/13 06:35:52;;;;;;;39.35;27.00;;;9.40;99.90;;;;;;4965967;28;20066;-65
2022/10/13 06:38:18;;;;;;;43.25;27.58;;;9.50;99.90;;;;;;4965827;28;20103;-65
2022/10/13 06:40:44;;;;;;;43.20;27.23;;;9.50;99.90;;;;;;4966920;28;20039;-66
2022/10/13 06:43:10;;;;;;;38.63;27.38;;;9.60;99.90;;;;;;4965083;28;20066;-65
2022/10/13 06:45:35;;;;;;;42.63;27.55;;;9.60;99.90;;;;;;4948804;28;20070;-65
2022/10/13 06:48:01;;;;;;;40.13;27.35;;;9.50;99.90;;;;;;4967140;28;20062;-65
2022/10/13 06:50:28;;;;;;;40.70;26.42;;;9.60;99.90;;;;;;4966724;28;20133;-65
2022/10/13 06:52:55;;;;;;;42.55;27.67;;;9.70;99.90;;;;;;4965814;28;20082;-65
2022/10/13 06:55:21;;;;;;;38.65;26.58;;;9.70;99.90;;;;;;4965647;28;20121;-65
2022/10/13 06:57:46;;;;;;;41.58;28.20;;;9.60;99.90;;;;;;4966964;28;20441;-65
2022/10/13 07:00:12;;;;;;;41.60;27.08;;;9.60;99.90;;;;;;4965207;28;20038;-65
2022/10/13 07:02:38;;;;;;;38.38;27.05;;;9.70;99.90;;;;;;4966058;28;20047;-65
2022/10/13 07:05:04;;;;;;;39.28;26.42;;;9.60;99.90;;;;;;4959969;28;20138;-65
2022/10/13 07:07:30;;;;;;;36.75;26.17;;;9.60;99.90;;;;;;4947069;29;20232;-65
2022/10/13 07:09:55;;;;;;;38.35;26.70;;;9.90;99.90;;;;;;4928842;29;20130;-65
2022/10/13 07:12:21;;;;;;;41.83;25.80;;;9.70;99.90;;;;;;4946263;29;20474;-65
2022/10/13 07:14:47;;;;;;;36.10;26.00;;;9.80;99.90;;;;;;4945567;29;20042;-65
2022/10/13 07:17:13;;;;;;;35.75;26.02;;;9.70;99.90;;;;;;4946401;29;20046;-65
2022/10/13 07:19:39;;;;;;;38.50;27.23;;;9.70;99.90;;;;;;4946508;29;20054;-65
2022/10/13 07:22:04;;;;;;;38.08;27.20;;;9.80;99.90;;;;;;4946605;29;20047;-65
2022/10/13 07:24:30;;;;;;;38.28;25.45;;;9.80;99.90;;;;;;4946060;29;20057;-66
2022/10/13 07:26:55;;;;;;;39.03;25.77;;;10.00;99.90;;;;;;4946854;29;20118;-65
2022/10/13 07:29:21;;;;;;;36.38;25.10;;;10.00;99.90;;;;;;4945604;29;20502;-65
2022/10/13 07:31:47;;;;;;;37.05;26.65;;;10.00;99.90;;;;;;4946893;29;20050;-65
2022/10/13 07:34:14;;;;;;;35.33;24.80;;;10.10;99.90;;;;;;4946272;29;20507;-65
2022/10/13 07:36:40;;;;;;;35.20;25.48;;;10.00;99.90;;;;;;4945531;29;20131;-65
2022/10/13 07:39:08;;;;;;;33.58;24.92;;;10.00;99.90;;;;;;4945531;29;20058;-65
2022/10/13 07:41:35;;;;;;;33.72;24.27;;;10.10;99.90;;;;;;4945179;29;20505;-65
2022/10/13 07:44:00;;;;;;;36.28;24.35;;;10.20;99.90;;;;;;4939833;29;20082;-65
2022/10/13 07:46:26;;;;;;;38.47;26.75;;;10.00;99.90;;;;;;4945290;28;20079;-65
2022/10/13 07:48:52;;;;;;;43.08;26.60;;;10.20;99.90;;;;;;4946432;28;20051;-66
2022/10/13 07:51:20;;;;;;;39.72;26.67;;;10.10;99.90;;;;;;4945919;28;20054;-66
2022/10/13 07:53:46;;;;;;;37.20;25.67;;;10.20;99.90;;;;;;4944330;28;20455;-65
2022/10/13 07:56:13;;;;;;;39.88;25.65;;;10.20;99.90;;;;;;4944108;29;20078;-67
2022/10/13 07:58:44;;;;;;;41.03;25.77;;;10.10;99.90;;;;;;4945633;28;20051;-67
2022/10/13 08:01:11;;;;;;;37.90;25.70;;;10.20;99.90;;;;;;4944113;29;20886;-67
2022/10/13 08:03:37;;;;;;;40.47;26.77;;;10.10;99.90;;;;;;4945417;28;20040;-67
2022/10/13 08:06:04;;;;;;;38.33;26.55;;;10.30;99.90;;;;;;4945504;28;20125;-68
2022/10/13 08:08:31;;;;;;;33.85;25.35;;;10.20;99.90;;;;;;4945751;29;20058;-67
2022/10/13 08:11:02;;;;;;;34.85;25.23;;;10.30;99.90;;;;;;4945297;28;20051;-67
2022/10/13 08:13:27;;;;;;;34.05;24.13;;;10.30;99.90;;;;;;4946424;29;20050;-67
2022/10/13 08:15:53;;;;;;;37.53;26.55;;;10.20;99.90;;;;;;4928252;29;20055;-67
2022/10/13 08:18:19;;;;;;;34.63;25.23;;;10.30;99.90;;;;;;4927731;29;20494;-67
2022/10/13 08:20:45;;;;;;;39.55;26.02;;;10.40;99.90;;;;;;4945608;29;20047;-67
2022/10/13 08:23:12;;;;;;;36.17;25.50;;;10.40;99.90;;;;;;4926955;29;20089;-68
2022/10/13 08:25:42;;;;;;;35.53;24.88;;;10.50;99.90;;;;;;4928659;29;20379;-67
2022/10/13 08:28:21;;;;;;;39.95;26.23;;;10.50;99.90;;;;;;4944785;29;20083;-68
2022/10/13 08:30:47;;;;;;;41.05;27.67;;;10.50;99.90;;;;;;4945314;29;20382;-67
2022/10/13 08:33:13;;;;;;;38.00;26.45;;;10.60;99.90;;;;;;4944170;29;20039;-67
2022/10/13 08:35:39;;;;;;;34.47;26.13;;;10.80;99.90;;;;;;4928479;29;20057;-67
2022/10/13 08:38:04;;;;;;;36.13;26.05;;;10.70;99.90;;;;;;4927369;29;20050;-62
2022/10/13 08:40:30;;;;;;;42.35;26.80;;;10.80;99.90;;;;;;4945423;29;20047;-65
2022/10/13 08:42:56;;;;;;;33.33;25.52;;;11.10;99.90;;;;;;4944306;29;20051;-66
2022/10/13 08:45:26;;;;;;;35.72;25.30;;;11.00;99.90;;;;;;4926999;29;20059;-66
2022/10/13 08:47:57;;;;;;;36.63;26.98;;;11.20;99.90;;;;;;4944905;29;20638;-67
2022/10/13 08:50:26;;;;;;;34.25;25.23;;;11.10;99.90;;;;;;4926545;29;20050;-66
2022/10/13 08:52:55;;;;;;;35.05;25.58;;;11.20;99.90;;;;;;4944650;29;20051;-66
2022/10/13 08:55:39;;;;;;;36.55;26.13;;;11.30;99.90;;;;;;4927302;29;20078;-67
2022/10/13 08:58:27;;;;;;;38.10;25.95;;;11.30;99.90;;;;;;4927684;29;20055;-66
2022/10/13 09:01:05;;;;;;;35.85;24.73;;;11.40;99.90;;;;;;4911849;29;20130;-66
2022/10/13 09:03:32;;;;;;;37.63;25.30;;;11.30;99.90;;;;;;4927784;29;20279;-66
2022/10/13 09:06:31;;;;;;;39.13;26.75;;;11.40;99.90;;;;;;4927083;29;20043;-66
2022/10/13 09:09:04;;;;;;;35.25;25.65;;;11.50;99.90;;;;;;4908062;29;20043;-66
2022/10/13 09:11:36;;;;;;;36.95;26.08;;;11.50;99.90;;;;;;4908417;29;20056;-66
2022/10/13 09:14:05;;;;;;;36.40;25.40;;;11.50;99.90;;;;;;4924256;29;20736;-67
2022/10/13 09:16:37;;;;;;;34.08;26.00;;;11.40;99.90;;;;;;4925612;29;20064;-66
2022/10/13 09:19:21;;;;;;;38.10;27.05;;;11.60;99.90;;;;;;4907932;29;20048;-66
2022/10/13 09:21:55;;;;;;;34.78;26.10;;;11.40;99.90;;;;;;4907970;29;20050;-66
2022/10/13 09:24:22;;;;;;;35.57;24.93;;;11.50;99.90;;;;;;4906975;29;20044;-66
2022/10/13 09:27:00;;;;;;;36.00;25.88;;;11.40;99.90;;;;;;4925710;29;20107;-67
2022/10/13 09:29:26;;;;;;;36.75;27.70;;;11.50;99.90;;;;;;4931187;28;20095;-66
2022/10/13 09:32:12;;;;;;;39.75;26.10;;;11.50;99.90;;;;;;4943247;29;20071;-66
2022/10/13 09:34:38;;;;;;;38.15;26.52;;;11.60;99.90;;;;;;4943786;29;20382;-66
2022/10/13 09:37:05;;;;;;;32.83;25.92;;;11.70;99.90;;;;;;4942834;28;20055;-67
2022/10/13 09:39:32;;;;;;;40.80;26.70;;;11.80;99.90;;;;;;4942700;29;20423;-66
2022/10/13 09:42:25;;;;;;;41.80;27.75;;;11.60;99.90;;;;;;4944375;28;20138;-66
2022/10/13 09:45:11;;;;;;;43.90;29.30;;;11.80;99.90;;;;;;4942037;29;20407;-66
2022/10/13 09:47:38;;;;;;;37.88;28.27;;;11.70;99.90;;;;;;4943172;28;20058;-66
2022/10/13 09:50:25;;;;;;;38.72;27.40;;;11.80;99.90;;;;;;4942089;29;20050;-67
2022/10/13 09:52:51;;;;;;;40.65;30.40;;;11.90;99.90;;;;;;4943363;28;20409;-66
2022/10/13 09:55:31;;;;;;;38.05;28.92;;;12.00;99.90;;;;;;4943826;28;20117;-66
2022/10/13 09:58:24;;;;;;;42.85;29.52;;;11.80;99.90;;;;;;4944155;28;20224;-66
2022/10/13 10:00:51;;;;;;;41.53;29.23;;;12.00;99.90;;;;;;4937614;29;20184;-66
2022/10/13 10:03:20;;;;;;;42.60;31.45;;;12.00;99.90;;;;;;4943364;28;20043;-66
2022/10/13 10:05:55;;;;;;;46.13;31.15;;;12.00;99.90;;;;;;4941827;29;20051;-66
2022/10/13 10:08:40;;;;;;;;;;;12.00;99.90;;;;;;4925520;29;20086;-66
2022/10/13 10:11:16;;;;;;;42.50;31.90;;;12.20;99.90;;;;;;4923256;29;19930;-66
2022/10/13 10:13:42;;;;;;;43.05;31.50;;;12.40;99.90;;;;;;4922661;29;20098;-66
2022/10/13 10:16:38;;;;;;;42.97;31.13;;;12.30;99.90;;;;;;4924281;29;20039;-67
2022/10/13 10:19:25;;;;;;;41.38;30.10;;;12.20;99.90;;;;;;4921162;29;20423;-67
2022/10/13 10:22:10;;;;;;;45.30;30.63;;;12.30;99.90;;;;;;4918661;29;20503;-65
2022/10/13 10:24:50;;;;;;;42.47;29.92;;;12.20;99.90;;;;;;4905606;29;20048;-66
2022/10/13 10:27:40;;;;;;;38.38;29.05;;;12.30;99.90;;;;;;4905243;29;20237;-66
2022/10/13 10:30:19;;;;;;;39.22;28.08;;;12.30;99.90;;;;;;4906054;29;20583;-60
2022/10/13 10:32:57;;;;;;;40.45;31.05;;;12.30;99.90;;;;;;4905816;29;20056;-58
2022/10/13 10:35:56;;;;;;;39.47;31.00;;;12.40;99.90;;;;;;4907362;29;20487;-64
2022/10/13 10:38:32;;;;;;;43.25;31.38;;;12.40;99.90;;;;;;4905562;29;20665;-66
2022/10/13 10:41:11;;;;;;;38.75;30.13;;;12.40;99.90;;;;;;4907892;29;20062;-66
2022/10/13 10:43:50;;;;;;;45.55;32.58;;;12.40;99.90;;;;;;4907331;29;20055;-66
2022/10/13 10:46:29;;;;;;;40.20;31.20;;;12.40;99.90;;;;;;4908785;29;20086;-66
2022/10/13 10:49:00;;;;;;;42.05;30.77;;;12.50;99.90;;;;;;4909047;29;20143;-66
2022/10/13 10:51:34;;;;;;;40.67;30.02;;;12.30;99.90;;;;;;4908819;29;20110;-66
2022/10/13 10:54:27;;;;;;;42.88;30.08;;;12.40;99.90;;;;;;4908596;29;20521;-66
2022/10/13 10:56:59;;;;;;;40.75;31.05;;;12.30;99.90;;;;;;4906771;29;20071;-66
2022/10/13 10:59:50;;;;;;;36.10;28.60;;;12.40;99.90;;;;;;4906816;29;20135;-66
2022/10/13 11:02:15;;;;;;;40.80;31.48;;;12.50;99.90;;;;;;4907973;29;20127;-66
2022/10/13 11:04:47;;;;;;;44.20;31.67;;;12.40;99.90;;;;;;4910845;29;20043;-66
2022/10/13 11:07:21;;;;;;;44.47;33.50;;;12.50;99.90;;;;;;4926558;29;20481;-56
2022/10/13 11:09:47;;;;;;;44.55;32.70;;;12.60;99.90;;;;;;4927966;29;20168;-57
2022/10/13 11:12:19;;;;;;;42.42;32.20;;;12.60;99.90;;;;;;4926085;29;20499;-57
2022/10/13 11:15:04;;;;;;;41.75;30.73;;;12.50;99.90;;;;;;4928439;29;20114;-57
2022/10/13 11:17:38;;;;;;;40.63;31.98;;;12.50;99.90;;;;;;4927702;29;20044;-57
2022/10/13 11:20:19;;;;;;;42.25;33.63;;;12.60;99.90;;;;;;4927955;29;20487;-57
2022/10/13 11:22:56;;;;;;;42.03;32.85;;;12.50;99.90;;;;;;4927267;29;20570;-57
2022/10/13 11:25:40;;;;;;;43.75;33.65;;;12.60;99.90;;;;;;4925852;29;20099;-56
2022/10/13 11:28:20;;;;;;;42.00;32.83;;;12.70;99.90;;;;;;4927786;29;20039;-58
2022/10/13 11:30:46;;;;;;;46.08;34.53;;;12.50;99.90;;;;;;4927803;29;20546;-57
2022/10/13 11:33:49;;;;;;;44.72;34.60;;;12.60;99.90;;;;;;4927234;29;20047;-58
2022/10/13 11:36:50;;;;;;;43.55;33.50;;;12.70;99.90;;;;;;4926779;29;20062;-57
2022/10/13 11:39:27;;;;;;;44.70;33.17;;;12.60;99.90;;;;;;4924884;29;20133;-57
2022/10/13 11:42:20;;;;;;;43.65;33.00;;;12.80;99.90;;;;;;4926101;29;20090;-58
2022/10/13 11:45:12;;;;;;;46.00;32.78;;;12.70;99.90;;;;;;4926701;29;20416;-58
2022/10/13 11:48:22;;;;;;;42.00;31.95;;;12.80;99.90;;;;;;4926787;29;20098;-57
2022/10/13 11:51:06;;;;;;;44.75;32.63;;;12.90;99.90;;;;;;4925943;29;20437;-58
2022/10/13 11:53:57;;;;;;;44.27;32.87;;;12.70;99.90;;;;;;4926038;29;20059;-58
2022/10/13 11:57:01;;;;;;;47.17;34.38;;;12.80;99.90;;;;;;4926567;29;20042;-58
2022/10/13 11:59:32;;;;;;;40.55;33.25;;;12.90;99.90;;;;;;4927218;29;20199;-58
2022/10/13 12:02:12;;;;;;;46.15;34.90;;;12.90;99.90;;;;;;4927557;29;20136;-57
2022/10/13 12:04:40;;;;;;;47.13;35.25;;;13.00;99.90;;;;;;4925299;29;20048;-58
2022/10/13 12:07:09;;;;;;;44.17;33.92;;;12.90;99.90;;;;;;4926274;29;20056;-57
2022/10/13 12:09:50;;;;;;;44.42;34.13;;;13.00;99.90;;;;;;4926695;29;20051;-58
2022/10/13 12:12:18;;;;;;;47.63;33.25;;;13.10;99.90;;;;;;4944512;29;20067;-57
2022/10/13 12:14:49;;;;;;;44.47;32.67;;;13.00;99.90;;;;;;4945535;29;20414;-57
2022/10/13 12:17:37;;;;;;;47.05;35.25;;;13.10;99.90;;;;;;4945229;29;20511;-58
2022/10/13 12:20:32;;;;;;;48.08;34.67;;;13.20;99.90;;;;;;4960912;28;20038;-58
2022/10/13 12:22:58;;;;;;;47.95;34.05;;;13.20;99.90;;;;;;4964236;28;20042;-58
2022/10/13 12:25:27;;;;;;;44.28;33.42;;;13.10;99.90;;;;;;4964596;28;20057;-58
2022/10/13 12:27:58;;;;;;;44.85;33.53;;;13.10;99.90;;;;;;4964965;28;20122;-58
2022/10/13 12:30:28;;;;;;;44.47;33.17;;;13.10;99.90;;;;;;4963280;28;20465;-58
2022/10/13 12:32:56;;;;;;;45.10;32.25;;;13.10;99.90;;;;;;4965203;28;20045;-56
2022/10/13 12:35:25;;;;;;;47.00;32.53;;;13.20;99.90;;;;;;4963969;28;20592;-57
2022/10/13 12:37:52;;;;;;;44.70;33.10;;;13.10;99.90;;;;;;4963705;28;21010;-58
2022/10/13 12:40:18;;;;;;;51.92;34.70;;;13.10;99.90;;;;;;4963907;28;20050;-58
2022/10/13 12:42:45;;;;;;;44.83;32.33;;;13.10;99.90;;;;;;4963337;28;20078;-58
2022/10/13 12:45:16;;;;;;;51.30;33.88;;;13.10;99.90;;;;;;4963446;28;20038;-58
2022/10/13 12:47:48;;;;;;;45.33;32.33;;;13.10;99.90;;;;;;4951891;28;20039;-57
2022/10/13 12:50:28;;;;;;;47.58;34.17;;;13.10;99.90;;;;;;4945545;28;20054;-58
2022/10/13 12:53:13;;;;;;;48.17;33.28;;;13.10;99.90;;;;;;4941427;29;20043;-57